Terminal Aerodrome Forecast
Issued by NWS Albuquerque, NM

Home | Current Version | Previous Version | Text Only | Print | Product List | Glossary On
Versions: 1 2 3 4 5 6 7 8 9 10 11 12 13 14 15 16 17 18 19 20 21 22
000
FTUS45 KABQ 021100 RRA
TAFABQ
TAF
KABQ 021142Z 0212/0312 01010KT P6SM SCT100 BKN120
      TEMPO 0212/0215 09011G19KT
     FM021700 15008KT P6SM SCT040 BKN070
     FM021900 18018G26KT P6SM VCSH BKN045
     FM030300 30014G22KT P6SM -SHRA OVC025
     FM031000 29008KT P6SM SCT030 SCT060=

USA.gov is the U.S. government's official web portal to all federal, state and local government web resources and services.